sensor_id;sensor_type;location;lat;lon;timestamp;temperature;humidity
2897;DHT22;1458;49.728;9.228;2023-10-08T00:02:25;13.20;99.90
2897;DHT22;1458;49.728;9.228;2023-10-08T00:04:52;13.10;99.90
2897;DHT22;1458;49.728;9.228;2023-10-08T00:07:20;13.10;99.90
2897;DHT22;1458;49.728;9.228;2023-10-08T00:09:50;13.20;99.90
2897;DHT22;1458;49.728;9.228;2023-10-08T00:12:18;13.10;99.90
2897;DHT22;1458;49.728;9.228;2023-10-08T00:14:46;13.00;99.90
2897;DHT22;1458;49.728;9.228;2023-10-08T00:17:19;13.00;99.90
2897;DHT22;1458;49.728;9.228;2023-10-08T00:19:48;13.00;99.90
2897;DHT22;1458;49.728;9.228;2023-10-08T00:22:18;12.90;99.90
2897;DHT22;1458;49.728;9.228;2023-10-08T00:24:48;12.80;99.90
2897;DHT22;1458;49.728;9.228;2023-10-08T00:27:23;12.80;99.90
2897;DHT22;1458;49.728;9.228;2023-10-08T00:29:50;12.90;99.90
2897;DHT22;1458;49.728;9.228;2023-10-08T00:32:18;12.80;99.90
2897;DHT22;1458;49.728;9.228;2023-10-08T00:34:48;12.70;99.90
2897;DHT22;1458;49.728;9.228;2023-10-08T00:37:16;12.60;99.90
2897;DHT22;1458;49.728;9.228;2023-10-08T00:39:44;12.60;99.90
2897;DHT22;1458;49.728;9.228;2023-10-08T00:42:11;12.70;99.90
2897;DHT22;1458;49.728;9.228;2023-10-08T00:44:39;12.80;99.90
2897;DHT22;1458;49.728;9.228;2023-10-08T00:47:15;12.90;99.90
2897;DHT22;1458;49.728;9.228;2023-10-08T00:49:44;13.10;99.90
2897;DHT22;1458;49.728;9.228;2023-10-08T00:52:22;12.90;99.90
2897;DHT22;1458;49.728;9.228;2023-10-08T00:54:56;13.00;99.90
2897;DHT22;1458;49.728;9.228;2023-10-08T00:57:35;12.90;99.90
2897;DHT22;1458;49.728;9.228;2023-10-08T01:00:09;13.00;99.90
2897;DHT22;1458;49.728;9.228;2023-10-08T01:02:47;12.90;99.90
2897;DHT22;1458;49.728;9.228;2023-10-08T01:05:21;13.00;99.90
2897;DHT22;1458;49.728;9.228;2023-10-08T01:07:54;13.00;99.90
2897;DHT22;1458;49.728;9.228;2023-10-08T01:10:22;13.00;99.90
2897;DHT22;1458;49.728;9.228;2023-10-08T01:12:50;13.00;99.90
2897;DHT22;1458;49.728;9.228;2023-10-08T01:15:31;13.00;99.90
2897;DHT22;1458;49.728;9.228;2023-10-08T01:18:02;12.90;99.90
2897;DHT22;1458;49.728;9.228;2023-10-08T01:20:31;12.90;99.90
2897;DHT22;1458;49.728;9.228;2023-10-08T01:23:05;12.90;99.90
2897;DHT22;1458;49.728;9.228;2023-10-08T01:25:37;12.90;99.90
2897;DHT22;1458;49.728;9.228;2023-10-08T01:28:05;12.80;99.90
2897;DHT22;1458;49.728;9.228;2023-10-08T01:30:41;12.90;99.90
2897;DHT22;1458;49.728;9.228;2023-10-08T01:33:12;12.90;99.90
2897;DHT22;1458;49.728;9.228;2023-10-08T01:35:43;12.90;99.90
2897;DHT22;1458;49.728;9.228;2023-10-08T01:38:12;13.10;99.90
2897;DHT22;1458;49.728;9.228;2023-10-08T01:40:40;13.10;99.90
2897;DHT22;1458;49.728;9.228;2023-10-08T01:43:08;13.20;99.90
2897;DHT22;1458;49.728;9.228;2023-10-08T01:45:39;13.20;99.90
2897;DHT22;1458;49.728;9.228;2023-10-08T01:48:10;13.30;99.90
2897;DHT22;1458;49.728;9.228;2023-10-08T01:50:39;13.20;99.90
2897;DHT22;1458;49.728;9.228;2023-10-08T01:53:06;13.30;99.90
2897;DHT22;1458;49.728;9.228;2023-10-08T01:55:38;13.30;99.90
2897;DHT22;1458;49.728;9.228;2023-10-08T01:58:16;13.40;99.90
2897;DHT22;1458;49.728;9.228;2023-10-08T02:00:45;13.40;99.90
2897;DHT22;1458;49.728;9.228;2023-10-08T02:03:15;13.50;99.90
2897;DHT22;1458;49.728;9.228;2023-10-08T02:05:44;13.50;99.90
2897;DHT22;1458;49.728;9.228;2023-10-08T02:08:13;13.60;99.90
2897;DHT22;1458;49.728;9.228;2023-10-08T02:10:44;13.60;99.90
2897;DHT22;1458;49.728;9.228;2023-10-08T02:13:13;13.50;99.90
2897;DHT22;1458;49.728;9.228;2023-10-08T02:15:44;13.30;99.90
2897;DHT22;1458;49.728;9.228;2023-10-08T02:18:13;13.30;99.90
2897;DHT22;1458;49.728;9.228;2023-10-08T02:20:41;13.40;99.90
2897;DHT22;1458;49.728;9.228;2023-10-08T02:23:09;13.50;99.90
2897;DHT22;1458;49.728;9.228;2023-10-08T02:25:37;13.40;99.90
2897;DHT22;1458;49.728;9.228;2023-10-08T02:28:08;13.30;99.90
2897;DHT22;1458;49.728;9.228;2023-10-08T02:30:38;13.30;99.90
2897;DHT22;1458;49.728;9.228;2023-10-08T02:33:06;13.20;99.90
2897;DHT22;1458;49.728;9.228;2023-10-08T02:35:41;13.20;99.90
2897;DHT22;1458;49.728;9.228;2023-10-08T02:38:10;13.00;99.90
2897;DHT22;1458;49.728;9.228;2023-10-08T02:40:39;13.00;99.90
2897;DHT22;1458;49.728;9.228;2023-10-08T02:43:12;12.90;99.90
2897;DHT22;1458;49.728;9.228;2023-10-08T02:45:42;12.90;99.90
2897;DHT22;1458;49.728;9.228;2023-10-08T02:48:13;12.90;99.90
2897;DHT22;1458;49.728;9.228;2023-10-08T02:50:42;12.90;99.90
2897;DHT22;1458;49.728;9.228;2023-10-08T02:53:11;12.90;99.90
2897;DHT22;1458;49.728;9.228;2023-10-08T02:55:43;12.90;99.90
2897;DHT22;1458;49.728;9.228;2023-10-08T02:58:14;12.90;99.90
2897;DHT22;1458;49.728;9.228;2023-10-08T03:00:46;12.70;99.90
2897;DHT22;1458;49.728;9.228;2023-10-08T03:03:14;12.70;99.90
2897;DHT22;1458;49.728;9.228;2023-10-08T03:05:47;12.70;99.90
2897;DHT22;1458;49.728;9.228;2023-10-08T03:08:15;12.60;99.90
2897;DHT22;1458;49.728;9.228;2023-10-08T03:10:47;12.60;99.90
2897;DHT22;1458;49.728;9.228;2023-10-08T03:13:17;12.50;99.90
2897;DHT22;1458;49.728;9.228;2023-10-08T03:15:45;12.50;99.90
2897;DHT22;1458;49.728;9.228;2023-10-08T03:18:34;12.50;99.90
2897;DHT22;1458;49.728;9.228;2023-10-08T03:21:08;12.50;99.90
2897;DHT22;1458;49.728;9.228;2023-10-08T03:23:46;12.40;99.90
2897;DHT22;1458;49.728;9.228;2023-10-08T03:26:14;12.50;99.90
2897;DHT22;1458;49.728;9.228;2023-10-08T03:29:02;12.50;99.90
2897;DHT22;1458;49.728;9.228;2023-10-08T03:31:33;12.40;99.90
2897;DHT22;1458;49.728;9.228;2023-10-08T03:34:19;12.60;99.90
2897;DHT22;1458;49.728;9.228;2023-10-08T03:36:47;12.70;99.90
2897;DHT22;1458;49.728;9.228;2023-10-08T03:39:17;12.70;99.90
2897;DHT22;1458;49.728;9.228;2023-10-08T03:41:45;12.80;99.90
2897;DHT22;1458;49.728;9.228;2023-10-08T03:44:26;13.00;99.90
2897;DHT22;1458;49.728;9.228;2023-10-08T03:46:55;13.00;99.90
2897;DHT22;1458;49.728;9.228;2023-10-08T03:49:23;13.10;99.90
2897;DHT22;1458;49.728;9.228;2023-10-08T03:51:57;13.10;99.90
2897;DHT22;1458;49.728;9.228;2023-10-08T03:54:24;13.20;99.90
2897;DHT22;1458;49.728;9.228;2023-10-08T03:57:00;13.20;99.90
2897;DHT22;1458;49.728;9.228;2023-10-08T03:59:31;13.20;99.90
2897;DHT22;1458;49.728;9.228;2023-10-08T04:02:01;13.10;99.90
2897;DHT22;1458;49.728;9.228;2023-10-08T04:04:39;13.10;99.90
2897;DHT22;1458;49.728;9.228;2023-10-08T04:07:17;13.20;99.90
2897;DHT22;1458;49.728;9.228;2023-10-08T04:10:25;13.20;99.90
2897;DHT22;1458;49.728;9.228;2023-10-08T04:13:25;13.30;99.90
2897;DHT22;1458;49.728;9.228;2023-10-08T04:15:55;13.10;99.90
2897;DHT22;1458;49.728;9.228;2023-10-08T04:18:22;13.00;99.90
2897;DHT22;1458;49.728;9.228;2023-10-08T04:20:50;12.90;99.90
2897;DHT22;1458;49.728;9.228;2023-10-08T04:23:30;12.80;99.90
2897;DHT22;1458;49.728;9.228;2023-10-08T04:25:58;12.70;99.90
2897;DHT22;1458;49.728;9.228;2023-10-08T04:28:25;12.80;99.90
2897;DHT22;1458;49.728;9.228;2023-10-08T04:31:01;12.80;99.90
2897;DHT22;1458;49.728;9.228;2023-10-08T04:33:43;12.80;99.90
2897;DHT22;1458;49.728;9.228;2023-10-08T04:36:11;12.80;99.90
2897;DHT22;1458;49.728;9.228;2023-10-08T04:38:44;12.90;99.90
2897;DHT22;1458;49.728;9.228;2023-10-08T04:41:14;12.90;99.90
2897;DHT22;1458;49.728;9.228;2023-10-08T04:43:45;12.90;99.90
2897;DHT22;1458;49.728;9.228;2023-10-08T04:46:16;13.00;99.90
2897;DHT22;1458;49.728;9.228;2023-10-08T04:48:57;13.00;99.90
2897;DHT22;1458;49.728;9.228;2023-10-08T04:51:25;13.10;99.90
2897;DHT22;1458;49.728;9.228;2023-10-08T04:54:00;13.20;99.90
2897;DHT22;1458;49.728;9.228;2023-10-08T04:56:30;13.30;99.90
2897;DHT22;1458;49.728;9.228;2023-10-08T04:58:58;13.50;99.90
2897;DHT22;1458;49.728;9.228;2023-10-08T05:01:27;13.50;99.90
2897;DHT22;1458;49.728;9.228;2023-10-08T05:04:04;13.60;99.90
2897;DHT22;1458;49.728;9.228;2023-10-08T05:06:49;13.80;99.90
2897;DHT22;1458;49.728;9.228;2023-10-08T05:09:46;13.90;99.90
2897;DHT22;1458;49.728;9.228;2023-10-08T05:12:19;13.90;99.90
2897;DHT22;1458;49.728;9.228;2023-10-08T05:15:04;13.90;99.90
2897;DHT22;1458;49.728;9.228;2023-10-08T05:17:56;14.00;99.90
2897;DHT22;1458;49.728;9.228;2023-10-08T05:20:35;14.20;99.90
2897;DHT22;1458;49.728;9.228;2023-10-08T05:23:25;14.20;99.90
2897;DHT22;1458;49.728;9.228;2023-10-08T05:26:10;14.30;99.90
2897;DHT22;1458;49.728;9.228;2023-10-08T05:28:46;14.30;99.90
2897;DHT22;1458;49.728;9.228;2023-10-08T05:31:27;14.20;99.90
2897;DHT22;1458;49.728;9.228;2023-10-08T05:34:14;14.10;99.90
2897;DHT22;1458;49.728;9.228;2023-10-08T05:36:43;14.10;99.90
2897;DHT22;1458;49.728;9.228;2023-10-08T05:39:37;13.90;99.90
2897;DHT22;1458;49.728;9.228;2023-10-08T05:42:08;13.80;99.90
2897;DHT22;1458;49.728;9.228;2023-10-08T05:44:46;13.70;99.90
2897;DHT22;1458;49.728;9.228;2023-10-08T05:47:33;13.80;99.90
2897;DHT22;1458;49.728;9.228;2023-10-08T05:50:18;13.70;99.90
2897;DHT22;1458;49.728;9.228;2023-10-08T05:53:04;13.60;99.90
2897;DHT22;1458;49.728;9.228;2023-10-08T05:55:45;13.60;99.90
2897;DHT22;1458;49.728;9.228;2023-10-08T05:58:13;13.60;99.90
2897;DHT22;1458;49.728;9.228;2023-10-08T06:00:50;13.60;99.90
2897;DHT22;1458;49.728;9.228;2023-10-08T06:03:35;13.60;99.90
2897;DHT22;1458;49.728;9.228;2023-10-08T06:06:13;13.60;99.90
2897;DHT22;1458;49.728;9.228;2023-10-08T06:09:02;13.70;99.90
2897;DHT22;1458;49.728;9.228;2023-10-08T06:11:48;13.60;99.90
2897;DHT22;1458;49.728;9.228;2023-10-08T06:14:36;13.70;99.90
2897;DHT22;1458;49.728;9.228;2023-10-08T06:17:19;13.80;99.90
2897;DHT22;1458;49.728;9.228;2023-10-08T06:20:22;13.80;99.90
2897;DHT22;1458;49.728;9.228;2023-10-08T06:22:54;13.90;99.90
2897;DHT22;1458;49.728;9.228;2023-10-08T06:25:27;14.00;99.90
2897;DHT22;1458;49.728;9.228;2023-10-08T06:27:56;14.00;99.90
2897;DHT22;1458;49.728;9.228;2023-10-08T06:30:24;14.20;99.90
2897;DHT22;1458;49.728;9.228;2023-10-08T06:32:56;14.30;99.90
2897;DHT22;1458;49.728;9.228;2023-10-08T06:35:23;14.30;99.90
2897;DHT22;1458;49.728;9.228;2023-10-08T06:37:56;14.40;99.90
2897;DHT22;1458;49.728;9.228;2023-10-08T06:40:25;14.40;99.90
2897;DHT22;1458;49.728;9.228;2023-10-08T06:43:07;14.60;99.90
2897;DHT22;1458;49.728;9.228;2023-10-08T06:45:48;14.60;99.90
2897;DHT22;1458;49.728;9.228;2023-10-08T06:48:18;14.70;99.90
2897;DHT22;1458;49.728;9.228;2023-10-08T06:50:47;14.90;99.90
2897;DHT22;1458;49.728;9.228;2023-10-08T06:53:17;15.10;99.90
2897;DHT22;1458;49.728;9.228;2023-10-08T06:55:45;15.30;99.80
2897;DHT22;1458;49.728;9.228;2023-10-08T06:58:14;15.40;98.50
2897;DHT22;1458;49.728;9.228;2023-10-08T07:00:42;15.50;97.80
2897;DHT22;1458;49.728;9.228;2023-10-08T07:03:15;15.70;96.80
2897;DHT22;1458;49.728;9.228;2023-10-08T07:05:44;15.70;95.90
2897;DHT22;1458;49.728;9.228;2023-10-08T07:08:22;15.70;95.10
2897;DHT22;1458;49.728;9.228;2023-10-08T07:10:50;15.80;95.90
2897;DHT22;1458;49.728;9.228;2023-10-08T07:13:18;15.80;94.20
2897;DHT22;1458;49.728;9.228;2023-10-08T07:15:48;15.80;93.80
2897;DHT22;1458;49.728;9.228;2023-10-08T07:18:16;15.80;93.80
2897;DHT22;1458;49.728;9.228;2023-10-08T07:20:51;15.80;94.00
2897;DHT22;1458;49.728;9.228;2023-10-08T07:23:28;15.80;93.70
2897;DHT22;1458;49.728;9.228;2023-10-08T07:26:00;16.00;93.30
2897;DHT22;1458;49.728;9.228;2023-10-08T07:28:36;16.00;92.80
2897;DHT22;1458;49.728;9.228;2023-10-08T07:31:05;16.10;92.50
2897;DHT22;1458;49.728;9.228;2023-10-08T07:33:35;16.20;92.20
2897;DHT22;1458;49.728;9.228;2023-10-08T07:36:03;16.30;91.90
2897;DHT22;1458;49.728;9.228;2023-10-08T07:38:41;16.30;92.20
2897;DHT22;1458;49.728;9.228;2023-10-08T07:41:09;16.40;92.30
2897;DHT22;1458;49.728;9.228;2023-10-08T07:43:38;16.50;91.30
2897;DHT22;1458;49.728;9.228;2023-10-08T07:46:06;16.60;90.80
2897;DHT22;1458;49.728;9.228;2023-10-08T07:48:33;16.70;90.50
2897;DHT22;1458;49.728;9.228;2023-10-08T07:51:00;16.80;90.10
2897;DHT22;1458;49.728;9.228;2023-10-08T07:53:29;16.90;89.30
2897;DHT22;1458;49.728;9.228;2023-10-08T07:56:05;17.00;89.60
2897;DHT22;1458;49.728;9.228;2023-10-08T07:58:37;17.00;90.00
2897;DHT22;1458;49.728;9.228;2023-10-08T08:01:05;17.10;89.80
2897;DHT22;1458;49.728;9.228;2023-10-08T08:03:35;17.10;89.50
2897;DHT22;1458;49.728;9.228;2023-10-08T08:06:04;17.20;90.10
2897;DHT22;1458;49.728;9.228;2023-10-08T08:08:33;17.30;87.40
2897;DHT22;1458;49.728;9.228;2023-10-08T08:11:01;17.40;85.40
2897;DHT22;1458;49.728;9.228;2023-10-08T08:13:34;17.50;86.50
2897;DHT22;1458;49.728;9.228;2023-10-08T08:16:02;17.60;84.60
2897;DHT22;1458;49.728;9.228;2023-10-08T08:18:42;17.80;86.30
2897;DHT22;1458;49.728;9.228;2023-10-08T08:21:10;17.90;84.90
2897;DHT22;1458;49.728;9.228;2023-10-08T08:23:41;17.90;83.80
2897;DHT22;1458;49.728;9.228;2023-10-08T08:26:14;18.00;79.80
2897;DHT22;1458;49.728;9.228;2023-10-08T08:28:55;18.00;81.50
2897;DHT22;1458;49.728;9.228;2023-10-08T08:31:23;18.00;82.60
2897;DHT22;1458;49.728;9.228;2023-10-08T08:33:52;18.00;83.00
2897;DHT22;1458;49.728;9.228;2023-10-08T08:36:23;18.00;84.20
2897;DHT22;1458;49.728;9.228;2023-10-08T08:38:51;18.10;82.60
2897;DHT22;1458;49.728;9.228;2023-10-08T08:41:19;18.10;82.00
2897;DHT22;1458;49.728;9.228;2023-10-08T08:43:50;18.30;81.60
2897;DHT22;1458;49.728;9.228;2023-10-08T08:46:33;18.30;79.50
2897;DHT22;1458;49.728;9.228;2023-10-08T08:49:04;18.30;79.30
2897;DHT22;1458;49.728;9.228;2023-10-08T08:51:33;18.20;78.70
2897;DHT22;1458;49.728;9.228;2023-10-08T08:54:01;18.20;79.90
2897;DHT22;1458;49.728;9.228;2023-10-08T08:56:33;18.40;83.40
2897;DHT22;1458;49.728;9.228;2023-10-08T08:59:03;18.60;77.60
2897;DHT22;1458;49.728;9.228;2023-10-08T09:01:32;18.70;75.40
2897;DHT22;1458;49.728;9.228;2023-10-08T09:04:02;18.70;73.00
2897;DHT22;1458;49.728;9.228;2023-10-08T09:06:32;18.70;72.90
2897;DHT22;1458;49.728;9.228;2023-10-08T09:09:00;18.80;73.00
2897;DHT22;1458;49.728;9.228;2023-10-08T09:11:47;18.70;71.10
2897;DHT22;1458;49.728;9.228;2023-10-08T09:14:19;18.90;69.80
2897;DHT22;1458;49.728;9.228;2023-10-08T09:16:49;19.00;70.70
2897;DHT22;1458;49.728;9.228;2023-10-08T09:19:16;19.00;72.10
2897;DHT22;1458;49.728;9.228;2023-10-08T09:21:59;19.20;71.00
2897;DHT22;1458;49.728;9.228;2023-10-08T09:24:30;19.30;71.50
2897;DHT22;1458;49.728;9.228;2023-10-08T09:26:59;19.40;70.20
2897;DHT22;1458;49.728;9.228;2023-10-08T09:29:28;19.30;72.20
2897;DHT22;1458;49.728;9.228;2023-10-08T09:31:57;19.20;68.80
2897;DHT22;1458;49.728;9.228;2023-10-08T09:34:27;19.20;68.60
2897;DHT22;1458;49.728;9.228;2023-10-08T09:36:57;19.20;71.40
2897;DHT22;1458;49.728;9.228;2023-10-08T09:39:27;19.20;70.10
2897;DHT22;1458;49.728;9.228;2023-10-08T09:42:02;19.30;69.00
2897;DHT22;1458;49.728;9.228;2023-10-08T09:44:32;19.40;67.50
2897;DHT22;1458;49.728;9.228;2023-10-08T09:47:06;19.40;68.00
2897;DHT22;1458;49.728;9.228;2023-10-08T09:49:46;19.40;67.50
2897;DHT22;1458;49.728;9.228;2023-10-08T09:52:21;19.50;69.30
2897;DHT22;1458;49.728;9.228;2023-10-08T09:54:56;19.70;69.80
2897;DHT22;1458;49.728;9.228;2023-10-08T09:57:27;19.70;67.60
2897;DHT22;1458;49.728;9.228;2023-10-08T09:59:54;19.70;68.20
2897;DHT22;1458;49.728;9.228;2023-10-08T10:02:25;19.80;67.30
2897;DHT22;1458;49.728;9.228;2023-10-08T10:04:55;19.90;67.90
2897;DHT22;1458;49.728;9.228;2023-10-08T10:07:22;20.10;68.00
2897;DHT22;1458;49.728;9.228;2023-10-08T10:09:50;20.00;68.50
2897;DHT22;1458;49.728;9.228;2023-10-08T10:12:21;20.10;65.90
2897;DHT22;1458;49.728;9.228;2023-10-08T10:14:53;19.90;66.40
2897;DHT22;1458;49.728;9.228;2023-10-08T10:17:24;19.90;66.50
2897;DHT22;1458;49.728;9.228;2023-10-08T10:19:54;19.90;66.90
2897;DHT22;1458;49.728;9.228;2023-10-08T10:22:29;19.90;65.20
2897;DHT22;1458;49.728;9.228;2023-10-08T10:24:59;20.00;66.10
2897;DHT22;1458;49.728;9.228;2023-10-08T10:27:29;20.10;65.60
2897;DHT22;1458;49.728;9.228;2023-10-08T10:30:04;20.10;65.60
2897;DHT22;1458;49.728;9.228;2023-10-08T10:32:36;20.10;65.70
2897;DHT22;1458;49.728;9.228;2023-10-08T10:35:04;20.20;65.90
2897;DHT22;1458;49.728;9.228;2023-10-08T10:37:33;20.20;66.40
2897;DHT22;1458;49.728;9.228;2023-10-08T10:40:08;20.20;66.20
2897;DHT22;1458;49.728;9.228;2023-10-08T10:42:38;20.40;64.00
2897;DHT22;1458;49.728;9.228;2023-10-08T10:45:14;20.50;62.60
2897;DHT22;1458;49.728;9.228;2023-10-08T10:48:03;20.30;63.50
2897;DHT22;1458;49.728;9.228;2023-10-08T10:50:39;20.40;65.70
2897;DHT22;1458;49.728;9.228;2023-10-08T10:53:17;20.30;64.30
2897;DHT22;1458;49.728;9.228;2023-10-08T10:55:45;20.30;62.70
2897;DHT22;1458;49.728;9.228;2023-10-08T10:58:24;20.20;64.20
2897;DHT22;1458;49.728;9.228;2023-10-08T11:00:54;20.20;63.40
2897;DHT22;1458;49.728;9.228;2023-10-08T11:03:26;20.20;63.50
2897;DHT22;1458;49.728;9.228;2023-10-08T11:05:58;20.10;63.20
2897;DHT22;1458;49.728;9.228;2023-10-08T11:08:32;20.10;62.40
2897;DHT22;1458;49.728;9.228;2023-10-08T11:11:02;19.90;63.10
2897;DHT22;1458;49.728;9.228;2023-10-08T11:13:33;19.80;63.60
2897;DHT22;1458;49.728;9.228;2023-10-08T11:16:06;19.80;63.80
2897;DHT22;1458;49.728;9.228;2023-10-08T11:18:42;19.90;63.70
2897;DHT22;1458;49.728;9.228;2023-10-08T11:21:12;20.00;63.60
2897;DHT22;1458;49.728;9.228;2023-10-08T11:23:44;19.90;64.10
2897;DHT22;1458;49.728;9.228;2023-10-08T11:26:19;19.80;63.60
2897;DHT22;1458;49.728;9.228;2023-10-08T11:28:47;19.90;64.40
2897;DHT22;1458;49.728;9.228;2023-10-08T11:31:16;19.90;64.50
2897;DHT22;1458;49.728;9.228;2023-10-08T11:33:47;20.10;63.40
2897;DHT22;1458;49.728;9.228;2023-10-08T11:36:21;20.20;63.10
2897;DHT22;1458;49.728;9.228;2023-10-08T11:38:53;20.30;61.80
2897;DHT22;1458;49.728;9.228;2023-10-08T11:41:28;20.50;62.00
2897;DHT22;1458;49.728;9.228;2023-10-08T11:43:57;20.50;62.10
2897;DHT22;1458;49.728;9.228;2023-10-08T11:46:26;20.70;62.50
2897;DHT22;1458;49.728;9.228;2023-10-08T11:49:00;20.80;62.00
2897;DHT22;1458;49.728;9.228;2023-10-08T11:51:31;20.90;63.50
2897;DHT22;1458;49.728;9.228;2023-10-08T11:53:59;21.20;60.40
2897;DHT22;1458;49.728;9.228;2023-10-08T11:56:28;21.10;60.30
2897;DHT22;1458;49.728;9.228;2023-10-08T11:58:55;21.30;59.30
2897;DHT22;1458;49.728;9.228;2023-10-08T12:01:23;21.50;57.80
2897;DHT22;1458;49.728;9.228;2023-10-08T12:03:52;21.80;56.30
2897;DHT22;1458;49.728;9.228;2023-10-08T12:06:26;21.70;56.80
2897;DHT22;1458;49.728;9.228;2023-10-08T12:08:55;21.50;57.40
2897;DHT22;1458;49.728;9.228;2023-10-08T12:11:24;21.60;57.10
2897;DHT22;1458;49.728;9.228;2023-10-08T12:13:59;21.40;56.10
2897;DHT22;1458;49.728;9.228;2023-10-08T12:16:26;21.30;57.20
2897;DHT22;1458;49.728;9.228;2023-10-08T12:18:56;21.50;57.80
2897;DHT22;1458;49.728;9.228;2023-10-08T12:21:28;21.60;58.20
2897;DHT22;1458;49.728;9.228;2023-10-08T12:23:56;21.60;55.70
2897;DHT22;1458;49.728;9.228;2023-10-08T12:26:24;21.50;56.80
2897;DHT22;1458;49.728;9.228;2023-10-08T12:28:52;21.40;56.20
2897;DHT22;1458;49.728;9.228;2023-10-08T12:31:20;21.30;57.80
2897;DHT22;1458;49.728;9.228;2023-10-08T12:33:49;21.30;58.90
2897;DHT22;1458;49.728;9.228;2023-10-08T12:36:19;21.40;58.80
2897;DHT22;1458;49.728;9.228;2023-10-08T12:38:50;21.50;58.80
2897;DHT22;1458;49.728;9.228;2023-10-08T12:41:23;21.50;58.30
2897;DHT22;1458;49.728;9.228;2023-10-08T12:43:52;21.50;58.00
2897;DHT22;1458;49.728;9.228;2023-10-08T12:46:21;21.60;57.50
2897;DHT22;1458;49.728;9.228;2023-10-08T12:48:51;21.50;56.70
2897;DHT22;1458;49.728;9.228;2023-10-08T12:51:20;21.30;58.40
2897;DHT22;1458;49.728;9.228;2023-10-08T12:53:52;21.10;56.50
2897;DHT22;1458;49.728;9.228;2023-10-08T12:56:25;21.00;57.50
2897;DHT22;1458;49.728;9.228;2023-10-08T12:59:01;20.90;58.10
2897;DHT22;1458;49.728;9.228;2023-10-08T13:01:31;20.90;59.70
2897;DHT22;1458;49.728;9.228;2023-10-08T13:04:01;20.90;60.10
2897;DHT22;1458;49.728;9.228;2023-10-08T13:06:34;20.90;59.20
2897;DHT22;1458;49.728;9.228;2023-10-08T13:09:05;21.00;60.00
2897;DHT22;1458;49.728;9.228;2023-10-08T13:11:38;21.00;59.80
2897;DHT22;1458;49.728;9.228;2023-10-08T13:14:06;20.90;60.10
2897;DHT22;1458;49.728;9.228;2023-10-08T13:16:33;20.90;60.00
2897;DHT22;1458;49.728;9.228;2023-10-08T13:19:03;21.00;60.20
2897;DHT22;1458;49.728;9.228;2023-10-08T13:21:33;21.00;59.70
2897;DHT22;1458;49.728;9.228;2023-10-08T13:24:03;21.00;59.00
2897;DHT22;1458;49.728;9.228;2023-10-08T13:26:35;21.10;60.20
2897;DHT22;1458;49.728;9.228;2023-10-08T13:29:03;21.00;58.90
2897;DHT22;1458;49.728;9.228;2023-10-08T13:31:34;21.00;60.20
2897;DHT22;1458;49.728;9.228;2023-10-08T13:34:02;21.10;60.30
2897;DHT22;1458;49.728;9.228;2023-10-08T13:36:34;21.10;60.30
2897;DHT22;1458;49.728;9.228;2023-10-08T13:39:05;21.20;60.40
2897;DHT22;1458;49.728;9.228;2023-10-08T13:41:35;21.20;59.30
2897;DHT22;1458;49.728;9.228;2023-10-08T13:44:04;21.00;60.00
2897;DHT22;1458;49.728;9.228;2023-10-08T13:46:32;21.10;60.50
2897;DHT22;1458;49.728;9.228;2023-10-08T13:49:02;21.00;60.20
2897;DHT22;1458;49.728;9.228;2023-10-08T13:51:31;20.80;60.60
2897;DHT22;1458;49.728;9.228;2023-10-08T13:54:01;20.80;61.70
2897;DHT22;1458;49.728;9.228;2023-10-08T13:56:33;20.80;61.40
2897;DHT22;1458;49.728;9.228;2023-10-08T13:59:04;20.80;62.00
2897;DHT22;1458;49.728;9.228;2023-10-08T14:01:38;20.80;60.90
2897;DHT22;1458;49.728;9.228;2023-10-08T14:04:09;20.80;61.30
2897;DHT22;1458;49.728;9.228;2023-10-08T14:06:38;20.80;61.60
2897;DHT22;1458;49.728;9.228;2023-10-08T14:09:08;20.80;61.60
2897;DHT22;1458;49.728;9.228;2023-10-08T14:11:42;20.90;61.90
2897;DHT22;1458;49.728;9.228;2023-10-08T14:14:09;20.90;62.30
2897;DHT22;1458;49.728;9.228;2023-10-08T14:16:38;21.10;61.30
2897;DHT22;1458;49.728;9.228;2023-10-08T14:19:08;21.10;60.80
2897;DHT22;1458;49.728;9.228;2023-10-08T14:21:38;21.20;60.40
2897;DHT22;1458;49.728;9.228;2023-10-08T14:24:15;21.20;60.60
2897;DHT22;1458;49.728;9.228;2023-10-08T14:26:44;21.20;60.40
2897;DHT22;1458;49.728;9.228;2023-10-08T14:29:17;21.10;60.70
2897;DHT22;1458;49.728;9.228;2023-10-08T14:31:46;21.00;61.00
2897;DHT22;1458;49.728;9.228;2023-10-08T14:34:15;20.90;60.80
2897;DHT22;1458;49.728;9.228;2023-10-08T14:36:55;20.80;61.90
2897;DHT22;1458;49.728;9.228;2023-10-08T14:39:39;20.70;61.80
2897;DHT22;1458;49.728;9.228;2023-10-08T14:42:26;20.70;62.10
2897;DHT22;1458;49.728;9.228;2023-10-08T14:45:23;20.70;62.60
2897;DHT22;1458;49.728;9.228;2023-10-08T14:47:53;20.60;64.30
2897;DHT22;1458;49.728;9.228;2023-10-08T14:50:21;20.50;64.20
2897;DHT22;1458;49.728;9.228;2023-10-08T14:52:49;20.50;64.70
2897;DHT22;1458;49.728;9.228;2023-10-08T14:55:16;20.50;66.00
2897;DHT22;1458;49.728;9.228;2023-10-08T14:57:49;20.40;67.80
2897;DHT22;1458;49.728;9.228;2023-10-08T15:00:18;20.40;66.60
2897;DHT22;1458;49.728;9.228;2023-10-08T15:02:51;20.40;68.20
2897;DHT22;1458;49.728;9.228;2023-10-08T15:05:20;20.40;68.20
2897;DHT22;1458;49.728;9.228;2023-10-08T15:07:49;20.20;70.10
2897;DHT22;1458;49.728;9.228;2023-10-08T15:10:17;20.20;69.50
2897;DHT22;1458;49.728;9.228;2023-10-08T15:12:45;20.10;69.90
2897;DHT22;1458;49.728;9.228;2023-10-08T15:15:14;20.00;70.40
2897;DHT22;1458;49.728;9.228;2023-10-08T15:17:42;19.90;70.50
2897;DHT22;1458;49.728;9.228;2023-10-08T15:20:13;19.90;70.50
2897;DHT22;1458;49.728;9.228;2023-10-08T15:22:42;19.90;74.20
2897;DHT22;1458;49.728;9.228;2023-10-08T15:25:10;19.80;75.70
2897;DHT22;1458;49.728;9.228;2023-10-08T15:27:38;19.80;76.10
2897;DHT22;1458;49.728;9.228;2023-10-08T15:30:07;19.70;76.30
2897;DHT22;1458;49.728;9.228;2023-10-08T15:32:39;19.70;77.20
2897;DHT22;1458;49.728;9.228;2023-10-08T15:35:10;19.60;75.90
2897;DHT22;1458;49.728;9.228;2023-10-08T15:37:40;19.50;75.80
2897;DHT22;1458;49.728;9.228;2023-10-08T15:40:09;19.50;74.80
2897;DHT22;1458;49.728;9.228;2023-10-08T15:42:46;19.50;75.60
2897;DHT22;1458;49.728;9.228;2023-10-08T15:45:15;19.50;76.10
2897;DHT22;1458;49.728;9.228;2023-10-08T15:47:44;19.60;76.50
2897;DHT22;1458;49.728;9.228;2023-10-08T15:50:12;19.70;77.60
2897;DHT22;1458;49.728;9.228;2023-10-08T15:52:39;19.60;78.70
2897;DHT22;1458;49.728;9.228;2023-10-08T15:55:07;19.50;78.80
2897;DHT22;1458;49.728;9.228;2023-10-08T15:57:37;19.40;79.70
2897;DHT22;1458;49.728;9.228;2023-10-08T16:00:06;19.40;78.90
2897;DHT22;1458;49.728;9.228;2023-10-08T16:02:34;19.30;78.70
2897;DHT22;1458;49.728;9.228;2023-10-08T16:05:04;19.30;78.40
2897;DHT22;1458;49.728;9.228;2023-10-08T16:07:33;19.20;79.50
2897;DHT22;1458;49.728;9.228;2023-10-08T16:10:01;19.20;80.30
2897;DHT22;1458;49.728;9.228;2023-10-08T16:12:28;19.00;81.90
2897;DHT22;1458;49.728;9.228;2023-10-08T16:14:56;19.00;82.60
2897;DHT22;1458;49.728;9.228;2023-10-08T16:17:23;18.80;84.60
2897;DHT22;1458;49.728;9.228;2023-10-08T16:19:56;18.70;85.80
2897;DHT22;1458;49.728;9.228;2023-10-08T16:22:25;18.60;86.30
2897;DHT22;1458;49.728;9.228;2023-10-08T16:24:54;18.50;87.40
2897;DHT22;1458;49.728;9.228;2023-10-08T16:27:21;18.50;89.70
2897;DHT22;1458;49.728;9.228;2023-10-08T16:29:48;18.50;90.20
2897;DHT22;1458;49.728;9.228;2023-10-08T16:32:16;18.30;90.10
2897;DHT22;1458;49.728;9.228;2023-10-08T16:34:44;18.30;89.90